Flight Track Log - Related Links

Times and Time Zones

All times are in EDT time to prevent confusion due to time zone crossing. See the SKW5564 flight status page for this flight to view local times or setup timezone preferences in your user account.

Time Position Orientation Groundspeed Altitude Reporting Facility
EDT Latitude Longitude Course Direction KTS MPH feet Rate Location/Type
Fri 06:53:00 PM 33.8354 -84.9017 297° West  Level Estimated
Fri 06:53:00 PM 33.8354 -84.9017 297° West  Level Estimated
Fri 06:54:00 PM 33.8848 -85.0205 297° West  Level Estimated
Fri 06:54:00 PM 33.8848 -85.0205 297° West  Level Estimated
Fri 06:55:00 PM 33.9340 -85.1394 297° West  Level Estimated
Fri 06:55:00 PM 33.9340 -85.1394 297° West  Level Estimated
Fri 06:56:00 PM 33.9832 -85.2585 296° West  Level Estimated
Fri 06:56:00 PM 33.9832 -85.2585 296° West  Level Estimated
Fri 06:57:00 PM 34.0322 -85.3777 296° West  Level Estimated
Fri 06:57:00 PM 34.0322 -85.3777 296° West  Level Estimated
Fri 06:58:00 PM 34.0812 -85.4970 296° West  Level Estimated
Fri 06:58:00 PM 34.0812 -85.4970 296° West  Level Estimated
Fri 06:59:00 PM 34.1300 -85.6165 296° West  Level Estimated
Fri 06:59:00 PM 34.1300 -85.6165 296° West  Level Estimated
Fri 07:00:00 PM 34.1787 -85.7361 296° West  Level Estimated
Fri 07:00:00 PM 34.1787 -85.7361 296° West  Level Estimated
Fri 07:01:00 PM 34.2273 -85.8559 296° West  Level Estimated
Fri 07:01:00 PM 34.2273 -85.8559 296° West  Level Estimated
Fri 07:02:00 PM 34.2757 -85.9758 296° West  Level Estimated
Fri 07:02:00 PM 34.2757 -85.9758 296° West  Level Estimated
Fri 07:03:00 PM 34.3241 -86.0958 296° West  Level Estimated
Fri 07:03:00 PM 34.3241 -86.0958 296° West  Level Estimated
Fri 07:04:00 PM 34.3723 -86.2160 296° West  Level Estimated
Fri 07:04:00 PM 34.3723 -86.2160 296° West  Level Estimated
Fri 07:05:00 PM 34.4204 -86.3363 296° West  Level Estimated
Fri 07:05:00 PM 34.4204 -86.3363 296° West  Level Estimated
Fri 07:07:11 PM 34.5251 -86.5995 296° West  Level Estimated
Fri 07:09:00 PM 34.6117 -86.8190 296° West  Level Estimated
Fri 07:10:00 PM 34.6592 -86.9400 296° West  Level Estimated
Fri 07:11:00 PM 34.7066 -87.0611 295° West  Level Estimated
Fri 07:12:00 PM 34.7539 -87.1824 295° West  Level Estimated
Fri 07:13:00 PM 34.8010 -87.3038 295° West  Level Estimated
Fri 07:14:00 PM 34.8481 -87.4254 295° West  Level Estimated
Fri 07:15:00 PM 34.8950 -87.5471 295° West  Level Estimated
Fri 07:16:00 PM 34.9418 -87.6689 295° West  Level Estimated
Fri 07:17:00 PM 34.9885 -87.7909 295° West  Level Estimated
Fri 07:18:00 PM 35.0350 -87.9130 295° West  Level Estimated
Fri 07:19:00 PM 35.0815 -88.0353 295° West  Level Estimated
Fri 07:20:00 PM 35.1278 -88.1577 295° West  Level Estimated
Fri 07:21:00 PM 35.1739 -88.2802 295° West  Level Estimated
Fri 07:22:00 PM 35.2200 -88.4029 295° West  Level Estimated
Fri 07:23:00 PM 35.2659 -88.5257 295° West  Level Estimated
Fri 07:24:00 PM 35.3117 -88.6486 295° West  Level Estimated
Fri 07:25:00 PM 35.3574 -88.7717 295° West  Level Estimated
Fri 07:26:00 PM 35.4030 -88.8949 294° West  Level Estimated
Fri 07:27:00 PM 35.4484 -89.0183 294° West  Level Estimated
Fri 07:28:00 PM 35.4938 -89.1418 294° West  Level Estimated
Fri 07:29:00 PM 35.5389 -89.2655 294° West  Level Estimated
Fri 07:30:00 PM 35.5840 -89.3893 294° West  Level Estimated
Fri 07:31:00 PM 35.6289 -89.5132 294° West  Level Estimated
Fri 07:32:00 PM 35.6737 -89.6372 294° West  Level Estimated
Fri 07:33:00 PM 35.7184 -89.7614 294° West  Level Estimated
Fri 07:34:00 PM 35.7630 -89.8858 294° West  Level Estimated
Fri 07:35:00 PM 35.8074 -90.0103 294° West  Level Estimated
Fri 07:36:00 PM 35.8517 -90.1349 294° West  Level Estimated
Fri 07:37:00 PM 35.8959 -90.2596 294° West  Level Estimated
Fri 07:38:00 PM 35.9399 -90.3845 294° West  Level Estimated
Fri 07:39:00 PM 35.9838 -90.5096 293° West  Level Estimated
Fri 07:40:00 PM 36.0276 -90.6348 293° West  Level Estimated
Fri 07:41:00 PM 36.0712 -90.7601 293° West  Level Estimated
Fri 07:42:00 PM 36.1147 -90.8855 293° West  Level Estimated
Fri 07:43:00 PM 36.1581 -91.0111 293° West  Level Estimated
Fri 07:44:00 PM 36.2014 -91.1369 293° West  Level Estimated
Fri 07:45:00 PM 36.2445 -91.2627 293° West  Level Estimated
Fri 07:46:00 PM 36.2875 -91.3887 293° West  Level Estimated
Fri 07:47:00 PM 36.3303 -91.5149 293° West  Level Estimated
Fri 07:48:00 PM 36.3731 -91.6412 293° West  Level Estimated
Fri 07:49:00 PM 36.4157 -91.7676 293° West  Level Estimated
Fri 07:50:00 PM 36.4581 -91.8942 293° West  Level Estimated
Fri 07:51:00 PM 36.5004 -92.0209 293° West  Level Estimated
Fri 07:52:00 PM 36.5426 -92.1477 293° West  Level Estimated
Fri 07:53:00 PM 36.5847 -92.2747 292° West  Level Estimated
Fri 07:54:00 PM 36.6266 -92.4018 292° West  Level Estimated
Fri 07:55:00 PM 36.6684 -92.5291 292° West  Level Estimated
Fri 07:56:00 PM 36.7100 -92.6565 292° West  Level Estimated
Fri 07:57:00 PM 36.7516 -92.7840 292° West  Level Estimated
Fri 07:58:00 PM 36.7929 -92.9117 292° West  Level Estimated
Fri 07:59:00 PM 36.8342 -93.0395 292° West  Level Estimated
Fri 08:00:00 PM 36.8753 -93.1674 292° West  Level Estimated
Fri 08:01:00 PM 36.9162 -93.2955 292° West  Level Estimated
Fri 08:02:00 PM 36.9571 -93.4237 292° West  Level Estimated
Fri 08:03:00 PM 36.9978 -93.5521 292° West  Level Estimated
Fri 08:04:00 PM 37.0383 -93.6806 292° West  Level Estimated
Fri 08:05:00 PM 37.0787 -93.8092 292° West  Level Estimated
Fri 08:06:00 PM 37.1190 -93.9380 291° West  Level Estimated
Fri 08:07:00 PM 37.1591 -94.0669 291° West  Level Estimated
Fri 08:08:00 PM 37.1992 -94.1959 291° West  Level Estimated
Fri 08:09:00 PM 37.2390 -94.3251 291° West  Level Estimated
Fri 08:10:00 PM 37.2787 -94.4544 291° West  Level Estimated
Fri 08:11:00 PM 37.3183 -94.5839 291° West  Level Estimated
Fri 08:12:00 PM 37.3577 -94.7135 291° West  Level Estimated
Fri 08:13:00 PM 37.3970 -94.8432 291° West  Level Estimated
Fri 08:14:00 PM 37.4362 -94.9731 291° West  Level Estimated
Fri 08:15:00 PM 37.4752 -95.1031 291° West  Level Estimated
Fri 08:16:00 PM 37.5140 -95.2332 291° West  Level Estimated
Fri 08:17:00 PM 37.5528 -95.3634 291° West  Level Estimated
Fri 08:18:00 PM 37.5914 -95.4939 291° West  Level Estimated
Fri 08:19:00 PM 37.6298 -95.6244 290° West  Level Estimated
Fri 08:20:00 PM 37.6681 -95.7551 290° West  Level Estimated
Fri 08:21:00 PM 37.7062 -95.8859 290° West  Level Estimated
Fri 08:22:00 PM 37.7442 -96.0168 290° West  Level Estimated
Fri 08:23:00 PM 37.7821 -96.1479 290° West  Level Estimated
Fri 08:24:00 PM 37.8198 -96.2791 290° West  Level Estimated
Fri 08:25:00 PM 37.8574 -96.4104 290° West  Level Estimated
Fri 08:26:00 PM 37.8948 -96.5419 290° West  Level Estimated
Fri 08:27:00 PM 37.9321 -96.6735 290° West  Level Estimated
Fri 08:28:00 PM 37.9692 -96.8053 290° West  Level Estimated
Fri 08:29:00 PM 38.0062 -96.9371 290° West  Level Estimated
Fri 08:30:00 PM 38.0430 -97.0692 290° West  Level Estimated
Fri 08:31:00 PM 38.0797 -97.2013 289° West  Level Estimated
Fri 08:32:00 PM 38.1162 -97.3336 289° West  Level Estimated
Fri 08:33:00 PM 38.1526 -97.4660 289° West  Level Estimated
Fri 08:34:00 PM 38.1889 -97.5985 289° West  Level Estimated
Fri 08:35:00 PM 38.2249 -97.7312 289° West  Level Estimated
Fri 08:36:00 PM 38.2609 -97.8640 289° West  Level Estimated
Fri 08:37:00 PM 38.2967 -97.9969 289° West  Level Estimated
Fri 08:38:00 PM 38.3323 -98.1300 289° West  Level Estimated
Fri 08:39:00 PM 38.3678 -98.2632 289° West  Level Estimated
Fri 08:40:00 PM 38.4031 -98.3965 289° West  Level Estimated
Fri 08:41:00 PM 38.4383 -98.5299 289° West  Level Estimated
Fri 08:42:00 PM 38.4734 -98.6635 289° West  Level Estimated
Fri 08:43:00 PM 38.5083 -98.7972 288° West  Level Estimated
Fri 08:44:00 PM 38.5430 -98.9311 288° West  Level Estimated
Fri 08:45:00 PM 38.5776 -99.0650 288° West  Level Estimated
Fri 08:46:00 PM 38.6120 -99.1991 288° West  Level Estimated
Fri 08:47:00 PM 38.6463 -99.3334 288° West  Level Estimated
Fri 08:48:00 PM 38.6804 -99.4677 288° West  Level Estimated
Fri 08:49:00 PM 38.7144 -99.6022 288° West  Level Estimated
Fri 08:50:00 PM 38.7482 -99.7368 288° West  Level Estimated
Fri 08:51:00 PM 38.7818 -99.8716 288° West  Level Estimated
Fri 08:52:00 PM 38.8153 -100.0064 288° West  Level Estimated
Fri 08:53:00 PM 38.8487 -100.1414 288° West  Level Estimated
Fri 08:54:00 PM 38.8819 -100.2766 288° West  Level Estimated
Fri 08:55:00 PM 38.9149 -100.4118 287° West  Level Estimated
Fri 08:56:00 PM 38.9478 -100.5472 287° West  Level Estimated
Fri 08:57:00 PM 38.9805 -100.6827 287° West  Level Estimated
Fri 08:58:00 PM 39.0131 -100.8183 287° West  Level Estimated
Fri 08:59:00 PM 39.0455 -100.9540 287° West  Level Estimated
Fri 09:00:00 PM 39.0778 -101.0899 287° West  Level Estimated
Fri 09:01:00 PM 39.1099 -101.2259 287° West  Level Estimated
Fri 09:02:00 PM 39.1418 -101.3620 287° West  Level Estimated
Fri 09:03:00 PM 39.1736 -101.4983 287° West  Level Estimated
Fri 09:04:00 PM 39.2052 -101.6346 287° West  Level Estimated
Fri 09:05:00 PM 39.2366 -101.7711 287° West  Level Estimated
Fri 09:06:00 PM 39.2679 -101.9077 287° West  Level Estimated
Fri 09:07:00 PM 39.2991 -102.0445 286° West  Level Estimated
Fri 09:08:00 PM 39.3301 -102.1813 286° West  Level Estimated
Fri 09:09:00 PM 39.3609 -102.3183 286° West  Level Estimated
Fri 09:10:00 PM 39.3915 -102.4554 286° West  Level Estimated
Fri 09:11:00 PM 39.4221 -102.5926 286° West  Level Estimated
Fri 09:12:00 PM 39.4524 -102.7299 286° West  Level Estimated
Fri 09:13:00 PM 39.4826 -102.8674 286° West  Level Estimated
Fri 09:14:00 PM 39.5126 -103.0050 286° West  Level Estimated
Fri 09:15:00 PM 39.5424 -103.1426 286° West  Level Estimated
Fri 09:16:00 PM 39.5721 -103.2804 286° West  Level Estimated
Fri 09:17:00 PM 39.6017 -103.4184 286° West  Level Estimated
Fri 09:18:00 PM 39.6310 -103.5564 285° West  Level Estimated
Fri 09:19:00 PM 39.6602 -103.6946 285° West  Level Estimated
Fri 09:20:00 PM 39.6893 -103.8329 285° West  Level Estimated
Fri 09:21:00 PM 39.7181 -103.9713 285° West  Level Estimated
Fri 09:22:00 PM 39.7468 -104.1098 285° West  Level Estimated
Fri 09:23:00 PM 39.7754 -104.2484 285° West  Level Estimated
Fri 09:24:00 PM 39.8037 -104.3871 285° West  Level Estimated
Fri 09:25:00 PM 39.8320 -104.5260 285° West  Level Estimated
Fri 09:26:00 PM 39.8600 -104.6650 285° West  Level Estimated
Fri 09:27:00 PM 39.8617 -104.6732 285° West  Level Estimated
Fri 09:28:00 PM 39.8617 -104.6732 142° Southeast  Level Estimated
Fri 09:29:00 PM 39.8617 -104.6732 142° Southeast  Level Estimated
Fri 09:30:00 PM 39.8617 -104.6732 142° Southeast  Level Estimated
Fri 09:31:00 PM 39.8617 -104.6732 142° Southeast  Level Estimated
Fri 09:32:00 PM 39.8617 -104.6732 142° Southeast  Level Estimated
Fri 09:33:00 PM 39.8617 -104.6732 142° Southeast  Level Estimated

Login

Don't have an account? Register now (free) for customized features, flight alerts, and more!